Rhourd El Adra — 7TBS — position and weather

sailwx.info

Track history (hours):
 
Tides and Currents Weather Stations Pressure Air Temp Water Temp Dewpoint Dewpoint Depression Visibility Wind Speed Wind Dir Waves Ship Positions

Rhourd El Adra

Last reported at 2015-Sep-04 15:28 UTC. Time now 2015-Sep-04 23:12 UTC.
Position N 35°57' W 000°11'.

Length 156 m; draft 7.1 m.

Type: Ship (hazmat cat C). MMSI: 605026210.

Date/timePositionNaut miles runAvg speedWind from/ knotsBaromVisibWave heightAir tempDewpointWater temp
2015-Sep-04 15:28N 35°57' W 000°11'33613.4
2015-Sep-03 14:26N 37°14' E 006°36'1415.6
2015-Sep-03 13:32N 37°15' E 006°54'1615.5
2015-Sep-03 12:32N 37°15' E 007°13'1615.8
2015-Sep-03 11:31N 37°15' E 007°33'2116.1
2015-Sep-03 10:11N 37°15' E 008°00'1115.9
2015-Sep-03 09:31N 37°15' E 008°14'18814.5
2015-Sep-02 20:33N 37°00' E 012°09'1515.1
2015-Sep-02 19:32N 36°54' E 012°26'1414.7
2015-Sep-02 18:33N 36°49' E 012°43'1514.9
2015-Sep-02 17:33N 36°44' E 013°00'1514.4
2015-Sep-02 16:33N 36°38' E 013°17'1514.7
2015-Sep-02 15:33N 36°32' E 013°34'1514.9
2015-Sep-02 14:33N 36°27' E 013°51'1515.3
2015-Sep-02 13:33N 36°21' E 014°08'1615.5
2015-Sep-02 12:33N 36°14' E 014°26'1515.5
2015-Sep-02 11:33N 36°08' E 014°43'1515.4
2015-Sep-02 10:33N 36°02' E 015°01'1715.3
2015-Sep-02 09:27N 35°57' E 015°21'1415.2
2015-Sep-02 08:30N 35°52' E 015°38'  
Track history (hours):
 
Tides and Currents Weather Stations Pressure Air Temp Water Temp Dewpoint Dewpoint Depression Visibility Wind Speed Wind Dir Waves Ship Positions

Rhourd El Adra

Last reported at 2015-Sep-04 15:28 UTC. Time now 2015-Sep-04 23:12 UTC.
Position N 35°57' W 000°11'.

Length 156 m; draft 7.1 m.

Type: Ship (hazmat cat C). MMSI: 605026210.

Date/timePositionNaut miles runAvg speedWind from/ knotsBaromVisibWave heightAir tempDewpointWater temp
2015-Sep-04 15:28N 35°57' W 000°11'33613.4
2015-Sep-03 14:26N 37°14' E 006°36'1415.6
2015-Sep-03 13:32N 37°15' E 006°54'1615.5
2015-Sep-03 12:32N 37°15' E 007°13'1615.8
2015-Sep-03 11:31N 37°15' E 007°33'2116.1
2015-Sep-03 10:11N 37°15' E 008°00'1115.9
2015-Sep-03 09:31N 37°15' E 008°14'18814.5
2015-Sep-02 20:33N 37°00' E 012°09'1515.1
2015-Sep-02 19:32N 36°54' E 012°26'1414.7
2015-Sep-02 18:33N 36°49' E 012°43'1514.9
2015-Sep-02 17:33N 36°44' E 013°00'1514.4
2015-Sep-02 16:33N 36°38' E 013°17'1514.7
2015-Sep-02 15:33N 36°32' E 013°34'1514.9
2015-Sep-02 14:33N 36°27' E 013°51'1515.3
2015-Sep-02 13:33N 36°21' E 014°08'1615.5
2015-Sep-02 12:33N 36°14' E 014°26'1515.5
2015-Sep-02 11:33N 36°08' E 014°43'1515.4
2015-Sep-02 10:33N 36°02' E 015°01'1715.3
2015-Sep-02 09:27N 35°57' E 015°21'1415.2
2015-Sep-02 08:30N 35°52' E 015°38'  

Dump ship's entire track history